Airfield :
LOGIN :

Register | Disclaimer

   EN    FR    IT 

 










Legend :    VFR   Marginal VFR   IFR   Intensive IFR   Very Intensive IFR
Visi :
Ceiling :
>= 8 km
>= 3000ft
5 to 8 km
1000 to 3000 ft
1500m to 5 km
500 to 1000 ft
800 to 1500m
200 to 500 ft
< 800m
< 200 ft
Symbols :   Thunderstorms  Fog  Heavy snow  Heavy precipitations  Wind > 20 kt
SIGMETs :     Misc.  Thunderstorms  Icing  Turbulence  Mountain Waves  Volcanic Ashes






- Airport Elevation : 266 ft
- IATA code : NCL


EGNT - Newcastle

CURRENT METAR :
  • 170520Z 33002KT 9999 FEW039 05/05 Q1010

EXPIRED METARs :
  • 170450Z 32004KT 9999 BKN035 06/06 Q1010
  • 170420Z 32005KT 9999 FEW018 BKN035 06/06 Q1009
  • 170350Z 33004KT 9999 FEW013 BKN025 06/06 Q1009
  • 170320Z 34004KT 9999 SCT015 BKN035 06/06 Q1009
  • 170250Z 33005KT 9999 SCT015 BKN032 06/06 Q1009

TAF TAF EGNT
Valid from the 17 at 06:00 until the 18 at 06:00 UTC


170501Z 1706/1806 34007KT 9999 SCT008 BKN030
TEMPO 1706/1709 6000 -RA FEW004 BKN008
PROB30
TEMPO 1706/1709 3000 RA BR BKN004
PROB30
TEMPO 1709/1806 6000 SHRA BKN008
ATIS : +44 191 214 3400



MET'MAP, your aeronautical weather chart ! - Copyright ORBIFLY December 2007 - Disclaimer

ORBIFLY MET'MAP TEAM :

Programming & Development : Alexandra Zaïnal
Concept & Development : Baudouin d'Aumeries
Co-Development & Prog : Marc-Olivier Méhu
Technical & hardware support : Manuel Goepfert

Contact : metmap@orbifly.com




SOURCES & CREDITS :

   NOAA